sensor_id;sensor_type;location;lat;lon;timestamp;pressure;altitude;pressure_sealevel;temperature;humidity
61035;BME280;46916;40.564;-7.958;2024-01-16T00:01:49;97038.16;;;14.85;100.00
61035;BME280;46916;40.564;-7.958;2024-01-16T00:03:50;97045.94;;;14.87;100.00
61035;BME280;46916;40.564;-7.958;2024-01-16T00:05:50;97036.38;;;14.86;100.00
61035;BME280;46916;40.564;-7.958;2024-01-16T00:07:51;97040.81;;;14.85;100.00
61035;BME280;46916;40.564;-7.958;2024-01-16T00:09:52;97042.28;;;14.88;100.00
61035;BME280;46916;40.564;-7.958;2024-01-16T00:11:54;97036.03;;;14.89;100.00
61035;BME280;46916;40.564;-7.958;2024-01-16T00:13:54;97030.09;;;14.87;100.00
61035;BME280;46916;40.564;-7.958;2024-01-16T00:15:55;97029.09;;;14.88;100.00
61035;BME280;46916;40.564;-7.958;2024-01-16T00:17:59;97031.75;;;14.88;100.00
61035;BME280;46916;40.564;-7.958;2024-01-16T00:20:00;97031.91;;;14.86;100.00
61035;BME280;46916;40.564;-7.958;2024-01-16T00:22:01;97032.75;;;14.87;100.00
61035;BME280;46916;40.564;-7.958;2024-01-16T00:24:04;97035.38;;;14.87;100.00
61035;BME280;46916;40.564;-7.958;2024-01-16T00:26:05;97038.00;;;14.87;100.00
61035;BME280;46916;40.564;-7.958;2024-01-16T00:28:06;97031.75;;;14.88;100.00
61035;BME280;46916;40.564;-7.958;2024-01-16T00:30:07;97030.94;;;14.88;100.00
61035;BME280;46916;40.564;-7.958;2024-01-16T00:32:07;97025.66;;;14.88;100.00
61035;BME280;46916;40.564;-7.958;2024-01-16T00:34:08;97024.97;;;14.85;100.00
61035;BME280;46916;40.564;-7.958;2024-01-16T00:36:09;97021.53;;;14.85;100.00
61035;BME280;46916;40.564;-7.958;2024-01-16T00:38:10;97033.75;;;14.86;100.00
61035;BME280;46916;40.564;-7.958;2024-01-16T00:40:11;97019.72;;;14.85;100.00
61035;BME280;46916;40.564;-7.958;2024-01-16T00:42:12;97017.25;;;14.84;100.00
61035;BME280;46916;40.564;-7.958;2024-01-16T00:44:12;97018.06;;;14.84;100.00
61035;BME280;46916;40.564;-7.958;2024-01-16T00:46:13;97016.25;;;14.85;100.00
61035;BME280;46916;40.564;-7.958;2024-01-16T00:48:14;97013.63;;;14.85;100.00
61035;BME280;46916;40.564;-7.958;2024-01-16T00:50:15;97015.44;;;14.84;100.00
61035;BME280;46916;40.564;-7.958;2024-01-16T08:07:38;96718.59;;;13.56;100.00
61035;BME280;46916;40.564;-7.958;2024-01-16T08:09:40;96725.16;;;13.60;100.00
61035;BME280;46916;40.564;-7.958;2024-01-16T08:11:41;96716.91;;;13.63;100.00
61035;BME280;46916;40.564;-7.958;2024-01-16T08:13:42;96718.41;;;13.66;100.00
61035;BME280;46916;40.564;-7.958;2024-01-16T08:15:43;96710.50;;;13.66;100.00
61035;BME280;46916;40.564;-7.958;2024-01-16T08:17:43;96698.50;;;13.63;100.00
61035;BME280;46916;40.564;-7.958;2024-01-16T08:19:44;96691.44;;;13.63;100.00
61035;BME280;46916;40.564;-7.958;2024-01-16T08:21:45;96695.03;;;13.62;100.00
61035;BME280;46916;40.564;-7.958;2024-01-16T08:23:45;96695.72;;;13.65;100.00
61035;BME280;46916;40.564;-7.958;2024-01-16T08:25:46;96687.16;;;13.62;100.00
61035;BME280;46916;40.564;-7.958;2024-01-16T08:27:47;96694.09;;;13.63;100.00
61035;BME280;46916;40.564;-7.958;2024-01-16T08:29:47;96687.97;;;13.63;100.00
61035;BME280;46916;40.564;-7.958;2024-01-16T08:31:51;96693.91;;;13.65;100.00
61035;BME280;46916;40.564;-7.958;2024-01-16T08:33:52;96691.09;;;13.67;100.00
61035;BME280;46916;40.564;-7.958;2024-01-16T08:35:56;96693.72;;;13.67;100.00
61035;BME280;46916;40.564;-7.958;2024-01-16T08:37:57;96692.59;;;13.69;100.00
61035;BME280;46916;40.564;-7.958;2024-01-16T08:39:57;96691.44;;;13.72;100.00
61035;BME280;46916;40.564;-7.958;2024-01-16T08:41:58;96693.88;;;13.73;100.00
61035;BME280;46916;40.564;-7.958;2024-01-16T08:43:59;96693.72;;;13.75;100.00
61035;BME280;46916;40.564;-7.958;2024-01-16T08:46:00;96691.75;;;13.77;100.00
61035;BME280;46916;40.564;-7.958;2024-01-16T08:48:01;96697.84;;;13.77;100.00
61035;BME280;46916;40.564;-7.958;2024-01-16T08:50:01;96695.19;;;13.77;100.00
61035;BME280;46916;40.564;-7.958;2024-01-16T08:52:03;96689.13;;;13.77;100.00
61035;BME280;46916;40.564;-7.958;2024-01-16T08:54:03;96681.22;;;13.77;100.00
61035;BME280;46916;40.564;-7.958;2024-01-16T08:56:04;96686.50;;;13.77;100.00
61035;BME280;46916;40.564;-7.958;2024-01-16T08:58:07;96685.31;;;13.79;100.00
61035;BME280;46916;40.564;-7.958;2024-01-16T09:00:08;96683.53;;;13.80;100.00
61035;BME280;46916;40.564;-7.958;2024-01-16T09:02:09;96683.16;;;13.83;100.00
61035;BME280;46916;40.564;-7.958;2024-01-16T09:04:10;96683.84;;;13.85;100.00
61035;BME280;46916;40.564;-7.958;2024-01-16T09:06:11;96686.47;;;13.85;100.00
61035;BME280;46916;40.564;-7.958;2024-01-16T09:08:12;96690.75;;;13.86;100.00
61035;BME280;46916;40.564;-7.958;2024-01-16T09:10:14;96687.09;;;13.87;100.00
61035;BME280;46916;40.564;-7.958;2024-01-16T09:12:15;96689.59;;;13.88;100.00
61035;BME280;46916;40.564;-7.958;2024-01-16T09:14:16;96685.97;;;13.90;100.00
61035;BME280;46916;40.564;-7.958;2024-01-16T09:16:17;96691.03;;;13.91;100.00
61035;BME280;46916;40.564;-7.958;2024-01-16T09:18:18;96691.84;;;13.92;100.00
61035;BME280;46916;40.564;-7.958;2024-01-16T09:20:19;96687.59;;;13.91;100.00
61035;BME280;46916;40.564;-7.958;2024-01-16T09:22:20;96690.22;;;13.91;100.00
61035;BME280;46916;40.564;-7.958;2024-01-16T09:24:20;96678.56;;;13.93;100.00
61035;BME280;46916;40.564;-7.958;2024-01-16T09:26:21;96679.53;;;13.92;100.00
61035;BME280;46916;40.564;-7.958;2024-01-16T09:28:22;96683.16;;;13.91;100.00
61035;BME280;46916;40.564;-7.958;2024-01-16T09:30:23;96673.28;;;13.93;100.00
61035;BME280;46916;40.564;-7.958;2024-01-16T09:32:23;96673.63;;;13.90;100.00
61035;BME280;46916;40.564;-7.958;2024-01-16T09:34:24;96672.63;;;13.91;100.00
61035;BME280;46916;40.564;-7.958;2024-01-16T09:36:25;96683.16;;;13.91;100.00
61035;BME280;46916;40.564;-7.958;2024-01-16T09:38:26;96681.34;;;13.92;100.00
61035;BME280;46916;40.564;-7.958;2024-01-16T09:40:27;96676.06;;;13.92;100.00
61035;BME280;46916;40.564;-7.958;2024-01-16T09:42:28;96677.88;;;13.91;100.00
61035;BME280;46916;40.564;-7.958;2024-01-16T09:44:29;96664.72;;;13.91;100.00
61035;BME280;46916;40.564;-7.958;2024-01-16T09:46:30;96675.09;;;13.93;100.00
61035;BME280;46916;40.564;-7.958;2024-01-16T09:48:31;96665.38;;;13.93;100.00
61035;BME280;46916;40.564;-7.958;2024-01-16T09:50:32;96657.50;;;13.93;100.00
61035;BME280;46916;40.564;-7.958;2024-01-16T09:52:33;96652.72;;;13.97;100.00
61035;BME280;46916;40.564;-7.958;2024-01-16T09:54:34;96650.56;;;14.00;100.00
61035;BME280;46916;40.564;-7.958;2024-01-16T09:56:41;96642.97;;;14.05;100.00
61035;BME280;46916;40.564;-7.958;2024-01-16T09:58:48;96647.88;;;14.17;100.00
61035;BME280;46916;40.564;-7.958;2024-01-16T10:00:50;96641.38;;;14.27;100.00
61035;BME280;46916;40.564;-7.958;2024-01-16T10:02:52;96649.09;;;14.37;100.00
61035;BME280;46916;40.564;-7.958;2024-01-16T10:04:53;96665.34;;;14.49;100.00
61035;BME280;46916;40.564;-7.958;2024-01-16T10:06:56;96648.03;;;14.54;100.00
61035;BME280;46916;40.564;-7.958;2024-01-16T10:08:59;96651.44;;;14.63;100.00
61035;BME280;46916;40.564;-7.958;2024-01-16T10:11:00;96654.66;;;14.73;100.00
61035;BME280;46916;40.564;-7.958;2024-01-16T10:13:01;96634.00;;;14.85;100.00
61035;BME280;46916;40.564;-7.958;2024-01-16T10:15:02;96631.22;;;15.01;100.00
61035;BME280;46916;40.564;-7.958;2024-01-16T10:17:04;96630.13;;;15.19;100.00
61035;BME280;46916;40.564;-7.958;2024-01-16T10:19:16;96632.44;;;15.36;100.00
61035;BME280;46916;40.564;-7.958;2024-01-16T10:21:21;96618.41;;;15.51;100.00
61035;BME280;46916;40.564;-7.958;2024-01-16T10:23:31;96613.19;;;15.66;100.00
61035;BME280;46916;40.564;-7.958;2024-01-16T10:25:37;96617.69;;;15.80;100.00
61035;BME280;46916;40.564;-7.958;2024-01-16T10:27:40;96619.84;;;15.91;100.00
61035;BME280;46916;40.564;-7.958;2024-01-16T10:29:57;96616.28;;;15.99;100.00
61035;BME280;46916;40.564;-7.958;2024-01-16T10:31:58;96613.09;;;16.03;100.00
61035;BME280;46916;40.564;-7.958;2024-01-16T10:33:59;96616.03;;;16.08;100.00
61035;BME280;46916;40.564;-7.958;2024-01-16T10:36:14;96619.09;;;16.12;100.00
61035;BME280;46916;40.564;-7.958;2024-01-16T10:38:22;96618.09;;;16.13;100.00
61035;BME280;46916;40.564;-7.958;2024-01-16T10:40:24;96611.81;;;16.14;100.00
61035;BME280;46916;40.564;-7.958;2024-01-16T10:42:30;96612.81;;;16.13;100.00
61035;BME280;46916;40.564;-7.958;2024-01-16T10:44:30;96615.00;;;16.09;100.00
61035;BME280;46916;40.564;-7.958;2024-01-16T10:46:32;96608.25;;;16.07;100.00
61035;BME280;46916;40.564;-7.958;2024-01-16T10:48:33;96607.66;;;16.05;100.00
61035;BME280;46916;40.564;-7.958;2024-01-16T10:50:36;96608.81;;;16.02;100.00
61035;BME280;46916;40.564;-7.958;2024-01-16T10:52:48;96610.75;;;15.94;100.00
61035;BME280;46916;40.564;-7.958;2024-01-16T10:54:57;96612.66;;;15.85;100.00
61035;BME280;46916;40.564;-7.958;2024-01-16T10:57:01;96605.84;;;15.76;100.00
61035;BME280;46916;40.564;-7.958;2024-01-16T10:59:30;96612.03;;;15.68;100.00
61035;BME280;46916;40.564;-7.958;2024-01-16T11:01:35;96611.28;;;15.59;100.00
61035;BME280;46916;40.564;-7.958;2024-01-16T11:03:55;96616.78;;;15.50;100.00
61035;BME280;46916;40.564;-7.958;2024-01-16T11:05:58;96622.59;;;15.45;100.00
61035;BME280;46916;40.564;-7.958;2024-01-16T11:07:59;96621.69;;;15.38;100.00
61035;BME280;46916;40.564;-7.958;2024-01-16T11:10:04;96621.41;;;15.33;100.00
61035;BME280;46916;40.564;-7.958;2024-01-16T11:12:06;96625.41;;;15.29;100.00
61035;BME280;46916;40.564;-7.958;2024-01-16T11:14:07;96621.47;;;15.25;100.00
61035;BME280;46916;40.564;-7.958;2024-01-16T11:16:10;96619.84;;;15.24;100.00
61035;BME280;46916;40.564;-7.958;2024-01-16T11:18:14;96615.19;;;15.26;100.00
61035;BME280;46916;40.564;-7.958;2024-01-16T11:20:15;96612.22;;;15.29;100.00
61035;BME280;46916;40.564;-7.958;2024-01-16T11:22:16;96619.78;;;15.32;100.00
61035;BME280;46916;40.564;-7.958;2024-01-16T11:24:18;96613.50;;;15.33;100.00
61035;BME280;46916;40.564;-7.958;2024-01-16T11:26:29;96615.13;;;15.34;100.00
61035;BME280;46916;40.564;-7.958;2024-01-16T11:28:32;96622.06;;;15.35;100.00
61035;BME280;46916;40.564;-7.958;2024-01-16T11:30:33;96629.97;;;15.35;100.00
61035;BME280;46916;40.564;-7.958;2024-01-16T11:36:49;96637.25;;;15.33;100.00
61035;BME280;46916;40.564;-7.958;2024-01-16T11:38:57;96628.84;;;15.29;100.00
61035;BME280;46916;40.564;-7.958;2024-01-16T11:40:57;96638.78;;;15.27;100.00
61035;BME280;46916;40.564;-7.958;2024-01-16T11:42:58;96646.03;;;15.25;100.00
61035;BME280;46916;40.564;-7.958;2024-01-16T11:45:00;96661.41;;;15.22;100.00
61035;BME280;46916;40.564;-7.958;2024-01-16T11:47:01;96669.03;;;15.17;100.00
61035;BME280;46916;40.564;-7.958;2024-01-16T11:49:03;96674.84;;;15.12;100.00
61035;BME280;46916;40.564;-7.958;2024-01-16T11:51:24;96669.28;;;15.07;100.00
61035;BME280;46916;40.564;-7.958;2024-01-16T11:53:36;96665.50;;;15.01;100.00
61035;BME280;46916;40.564;-7.958;2024-01-16T12:00:41;96642.84;;;14.92;100.00
61035;BME280;46916;40.564;-7.958;2024-01-16T12:02:51;96647.63;;;14.89;100.00
61035;BME280;46916;40.564;-7.958;2024-01-16T12:04:55;96640.94;;;14.86;100.00
61035;BME280;46916;40.564;-7.958;2024-01-16T12:07:00;96639.44;;;14.83;100.00
61035;BME280;46916;40.564;-7.958;2024-01-16T12:09:19;96631.06;;;14.80;100.00
61035;BME280;46916;40.564;-7.958;2024-01-16T12:11:20;96621.69;;;14.77;100.00
61035;BME280;46916;40.564;-7.958;2024-01-16T12:13:21;96619.22;;;14.76;100.00
61035;BME280;46916;40.564;-7.958;2024-01-16T12:15:22;96600.97;;;14.74;100.00
61035;BME280;46916;40.564;-7.958;2024-01-16T12:17:22;96612.66;;;14.72;100.00
61035;BME280;46916;40.564;-7.958;2024-01-16T12:19:23;96620.56;;;14.72;100.00
61035;BME280;46916;40.564;-7.958;2024-01-16T12:21:24;96618.28;;;14.69;100.00
61035;BME280;46916;40.564;-7.958;2024-01-16T12:23:25;96611.38;;;14.68;100.00
61035;BME280;46916;40.564;-7.958;2024-01-16T12:25:27;96601.84;;;14.67;100.00
61035;BME280;46916;40.564;-7.958;2024-01-16T12:27:28;96586.84;;;14.67;100.00
61035;BME280;46916;40.564;-7.958;2024-01-16T12:29:29;96579.13;;;14.66;100.00
61035;BME280;46916;40.564;-7.958;2024-01-16T12:31:30;96580.75;;;14.67;100.00
61035;BME280;46916;40.564;-7.958;2024-01-16T12:33:30;96556.22;;;14.66;100.00
61035;BME280;46916;40.564;-7.958;2024-01-16T12:37:35;96529.88;;;14.66;100.00
61035;BME280;46916;40.564;-7.958;2024-01-16T12:39:36;96524.59;;;14.66;100.00
61035;BME280;46916;40.564;-7.958;2024-01-16T12:41:41;96519.13;;;14.68;100.00
61035;BME280;46916;40.564;-7.958;2024-01-16T12:43:43;96504.16;;;14.68;100.00
61035;BME280;46916;40.564;-7.958;2024-01-16T12:45:44;96484.69;;;14.69;100.00
61035;BME280;46916;40.564;-7.958;2024-01-16T12:47:52;96476.28;;;14.74;100.00
61035;BME280;46916;40.564;-7.958;2024-01-16T12:49:53;96471.63;;;14.76;100.00
61035;BME280;46916;40.564;-7.958;2024-01-16T12:52:22;96470.47;;;14.78;100.00
61035;BME280;46916;40.564;-7.958;2024-01-16T12:54:26;96470.09;;;14.81;100.00
61035;BME280;46916;40.564;-7.958;2024-01-16T12:56:26;96462.00;;;14.83;100.00
61035;BME280;46916;40.564;-7.958;2024-01-16T12:58:32;96463.66;;;14.84;100.00
61035;BME280;46916;40.564;-7.958;2024-01-16T13:00:34;96454.09;;;14.83;100.00
61035;BME280;46916;40.564;-7.958;2024-01-16T13:02:35;96444.38;;;14.83;100.00
61035;BME280;46916;40.564;-7.958;2024-01-16T13:04:36;96439.91;;;14.84;100.00
61035;BME280;46916;40.564;-7.958;2024-01-16T13:06:37;96435.31;;;14.86;100.00
61035;BME280;46916;40.564;-7.958;2024-01-16T13:08:38;96429.03;;;14.87;100.00
61035;BME280;46916;40.564;-7.958;2024-01-16T13:10:39;96431.66;;;14.87;100.00
61035;BME280;46916;40.564;-7.958;2024-01-16T13:12:40;96431.66;;;14.87;100.00
61035;BME280;46916;40.564;-7.958;2024-01-16T13:14:41;96429.03;;;14.87;100.00
61035;BME280;46916;40.564;-7.958;2024-01-16T13:16:41;96441.19;;;14.88;100.00
61035;BME280;46916;40.564;-7.958;2024-01-16T13:18:42;96434.91;;;14.89;100.00
61035;BME280;46916;40.564;-7.958;2024-01-16T13:20:43;96424.38;;;14.89;100.00
61035;BME280;46916;40.564;-7.958;2024-01-16T13:22:44;96421.94;;;14.88;100.00
61035;BME280;46916;40.564;-7.958;2024-01-16T13:24:46;96418.63;;;14.85;100.00
61035;BME280;46916;40.564;-7.958;2024-01-16T13:26:46;96417.81;;;14.85;100.00
61035;BME280;46916;40.564;-7.958;2024-01-16T13:28:47;96419.84;;;14.83;100.00
61035;BME280;46916;40.564;-7.958;2024-01-16T13:30:48;96417.38;;;14.81;100.00
61035;BME280;46916;40.564;-7.958;2024-01-16T13:32:49;96406.81;;;14.81;100.00
61035;BME280;46916;40.564;-7.958;2024-01-16T13:34:50;96401.38;;;14.83;100.00
61035;BME280;46916;40.564;-7.958;2024-01-16T13:36:51;96394.91;;;14.85;100.00
61035;BME280;46916;40.564;-7.958;2024-01-16T13:38:52;96391.47;;;14.85;100.00
61035;BME280;46916;40.564;-7.958;2024-01-16T13:40:53;96392.13;;;14.87;100.00
61035;BME280;46916;40.564;-7.958;2024-01-16T13:42:54;96384.00;;;14.89;100.00
61035;BME280;46916;40.564;-7.958;2024-01-16T13:44:55;96385.84;;;14.88;100.00
61035;BME280;46916;40.564;-7.958;2024-01-16T13:46:56;96380.22;;;14.91;100.00
61035;BME280;46916;40.564;-7.958;2024-01-16T13:48:56;96373.13;;;14.92;100.00
61035;BME280;46916;40.564;-7.958;2024-01-16T13:50:57;96366.03;;;14.92;100.00
61035;BME280;46916;40.564;-7.958;2024-01-16T13:52:58;96362.56;;;14.92;100.00
61035;BME280;46916;40.564;-7.958;2024-01-16T13:54:59;96362.38;;;14.93;100.00
61035;BME280;46916;40.564;-7.958;2024-01-16T13:57:02;96364.03;;;14.94;100.00
61035;BME280;46916;40.564;-7.958;2024-01-16T13:59:04;96350.19;;;14.92;100.00
61035;BME280;46916;40.564;-7.958;2024-01-16T14:01:04;96332.56;;;14.93;100.00
61035;BME280;46916;40.564;-7.958;2024-01-16T14:03:05;96316.13;;;14.91;100.00
61035;BME280;46916;40.564;-7.958;2024-01-16T14:05:08;96302.94;;;14.91;100.00
61035;BME280;46916;40.564;-7.958;2024-01-16T14:07:11;96286.94;;;14.92;100.00
61035;BME280;46916;40.564;-7.958;2024-01-16T14:09:11;96278.81;;;14.94;100.00
61035;BME280;46916;40.564;-7.958;2024-01-16T14:11:14;96275.56;;;14.92;100.00
61035;BME280;46916;40.564;-7.958;2024-01-16T14:13:14;96271.94;;;14.93;100.00
61035;BME280;46916;40.564;-7.958;2024-01-16T14:15:17;96271.94;;;14.93;100.00
61035;BME280;46916;40.564;-7.958;2024-01-16T14:17:24;96267.47;;;14.93;100.00
61035;BME280;46916;40.564;-7.958;2024-01-16T14:19:26;96260.00;;;14.97;100.00
61035;BME280;46916;40.564;-7.958;2024-01-16T14:21:28;96239.72;;;14.97;100.00
61035;BME280;46916;40.564;-7.958;2024-01-16T14:23:29;96228.81;;;15.00;100.00
61035;BME280;46916;40.564;-7.958;2024-01-16T14:25:29;96211.19;;;15.01;100.00
61035;BME280;46916;40.564;-7.958;2024-01-16T14:27:30;96210.00;;;15.03;100.00
61035;BME280;46916;40.564;-7.958;2024-01-16T14:29:31;96201.28;;;15.03;100.00
61035;BME280;46916;40.564;-7.958;2024-01-16T14:31:32;96186.28;;;15.03;100.00
61035;BME280;46916;40.564;-7.958;2024-01-16T14:33:34;96203.72;;;15.04;100.00
61035;BME280;46916;40.564;-7.958;2024-01-16T14:35:35;96199.63;;;15.02;100.00
61035;BME280;46916;40.564;-7.958;2024-01-16T14:37:36;96183.00;;;15.01;100.00
61035;BME280;46916;40.564;-7.958;2024-01-16T14:39:37;96177.53;;;15.03;100.00
61035;BME280;46916;40.564;-7.958;2024-01-16T14:41:39;96182.81;;;15.03;100.00
61035;BME280;46916;40.564;-7.958;2024-01-16T14:43:40;96175.72;;;15.03;100.00
61035;BME280;46916;40.564;-7.958;2024-01-16T14:45:41;96157.06;;;15.05;100.00
61035;BME280;46916;40.564;-7.958;2024-01-16T14:47:42;96161.31;;;15.06;100.00
61035;BME280;46916;40.564;-7.958;2024-01-16T14:49:45;96170.91;;;15.07;100.00
61035;BME280;46916;40.564;-7.958;2024-01-16T14:51:46;96155.06;;;15.07;100.00
61035;BME280;46916;40.564;-7.958;2024-01-16T14:53:47;96147.16;;;15.07;100.00
61035;BME280;46916;40.564;-7.958;2024-01-16T14:55:47;96152.59;;;15.05;100.00
61035;BME280;46916;40.564;-7.958;2024-01-16T14:57:49;96144.69;;;15.05;100.00
61035;BME280;46916;40.564;-7.958;2024-01-16T15:00:00;96149.97;;;15.05;100.00
61035;BME280;46916;40.564;-7.958;2024-01-16T15:02:01;96139.41;;;15.05;100.00
61035;BME280;46916;40.564;-7.958;2024-01-16T15:04:12;96125.44;;;15.05;100.00
61035;BME280;46916;40.564;-7.958;2024-01-16T15:06:13;96110.41;;;15.05;100.00
61035;BME280;46916;40.564;-7.958;2024-01-16T15:08:16;96104.16;;;15.06;100.00
61035;BME280;46916;40.564;-7.958;2024-01-16T15:10:17;96111.06;;;15.07;100.00
61035;BME280;46916;40.564;-7.958;2024-01-16T15:12:18;96111.44;;;15.04;100.00
61035;BME280;46916;40.564;-7.958;2024-01-16T15:14:19;96133.53;;;15.03;100.00
61035;BME280;46916;40.564;-7.958;2024-01-16T15:16:19;96125.78;;;15.02;100.00
61035;BME280;46916;40.564;-7.958;2024-01-16T15:18:20;96127.63;;;15.01;100.00
61035;BME280;46916;40.564;-7.958;2024-01-16T15:20:21;96137.56;;;14.99;100.00
61035;BME280;46916;40.564;-7.958;2024-01-16T15:22:22;96136.91;;;14.97;100.00
61035;BME280;46916;40.564;-7.958;2024-01-16T15:24:23;96128.38;;;14.95;100.00
61035;BME280;46916;40.564;-7.958;2024-01-16T15:26:28;96132.41;;;14.91;100.00
61035;BME280;46916;40.564;-7.958;2024-01-16T15:28:30;96137.69;;;14.91;100.00
61035;BME280;46916;40.564;-7.958;2024-01-16T15:30:31;96142.50;;;14.88;100.00
61035;BME280;46916;40.564;-7.958;2024-01-16T15:32:33;96135.97;;;14.83;100.00
61035;BME280;46916;40.564;-7.958;2024-01-16T15:34:36;96143.25;;;14.81;100.00
61035;BME280;46916;40.564;-7.958;2024-01-16T15:36:37;96131.28;;;14.79;100.00
61035;BME280;46916;40.564;-7.958;2024-01-16T15:38:38;96125.56;;;14.75;100.00
61035;BME280;46916;40.564;-7.958;2024-01-16T15:40:39;96131.84;;;14.74;100.00
61035;BME280;46916;40.564;-7.958;2024-01-16T15:42:39;96125.31;;;14.70;100.00
61035;BME280;46916;40.564;-7.958;2024-01-16T15:44:40;96117.56;;;14.69;100.00
61035;BME280;46916;40.564;-7.958;2024-01-16T15:47:01;96128.13;;;14.69;100.00
61035;BME280;46916;40.564;-7.958;2024-01-16T15:49:02;96118.59;;;14.68;100.00
61035;BME280;46916;40.564;-7.958;2024-01-16T15:51:03;96115.13;;;14.67;100.00
61035;BME280;46916;40.564;-7.958;2024-01-16T15:53:06;96103.94;;;14.65;100.00
61035;BME280;46916;40.564;-7.958;2024-01-16T15:55:07;96119.75;;;14.65;100.00
61035;BME280;46916;40.564;-7.958;2024-01-16T15:57:08;96141.84;;;14.64;100.00
61035;BME280;46916;40.564;-7.958;2024-01-16T15:59:08;96155.84;;;14.65;100.00
61035;BME280;46916;40.564;-7.958;2024-01-16T16:01:11;96172.47;;;14.65;100.00
61035;BME280;46916;40.564;-7.958;2024-01-16T16:03:12;96189.47;;;14.63;100.00
61035;BME280;46916;40.564;-7.958;2024-01-16T16:05:13;96195.56;;;14.63;100.00
61035;BME280;46916;40.564;-7.958;2024-01-16T16:07:14;96161.66;;;14.60;100.00
61035;BME280;46916;40.564;-7.958;2024-01-16T16:09:15;96153.75;;;14.60;100.00
61035;BME280;46916;40.564;-7.958;2024-01-16T16:11:17;96160.25;;;14.57;100.00
61035;BME280;46916;40.564;-7.958;2024-01-16T16:13:17;96160.59;;;14.54;100.00
61035;BME280;46916;40.564;-7.958;2024-01-16T16:15:18;96161.78;;;14.52;100.00
61035;BME280;46916;40.564;-7.958;2024-01-16T16:17:19;96146.78;;;14.52;100.00
61035;BME280;46916;40.564;-7.958;2024-01-16T16:19:20;96153.41;;;14.48;100.00
61035;BME280;46916;40.564;-7.958;2024-01-16T16:21:21;96139.28;;;14.49;100.00
61035;BME280;46916;40.564;-7.958;2024-01-16T16:23:21;96139.59;;;14.46;100.00
61035;BME280;46916;40.564;-7.958;2024-01-16T16:25:22;96140.63;;;14.45;100.00
61035;BME280;46916;40.564;-7.958;2024-01-16T16:27:24;96142.25;;;14.46;100.00
61035;BME280;46916;40.564;-7.958;2024-01-16T16:29:25;96141.91;;;14.49;100.00
61035;BME280;46916;40.564;-7.958;2024-01-16T16:31:26;96139.28;;;14.49;100.00
61035;BME280;46916;40.564;-7.958;2024-01-16T16:33:27;96138.44;;;14.49;100.00
61035;BME280;46916;40.564;-7.958;2024-01-16T16:35:27;96153.41;;;14.48;100.00
61035;BME280;46916;40.564;-7.958;2024-01-16T16:37:28;96134.00;;;14.49;100.00
61035;BME280;46916;40.564;-7.958;2024-01-16T16:39:29;96129.00;;;14.54;100.00
61035;BME280;46916;40.564;-7.958;2024-01-16T16:41:29;96122.25;;;14.52;100.00
61035;BME280;46916;40.564;-7.958;2024-01-16T16:43:30;96105.66;;;14.51;100.00
61035;BME280;46916;40.564;-7.958;2024-01-16T16:45:31;96112.75;;;14.51;100.00
61035;BME280;46916;40.564;-7.958;2024-01-16T16:47:31;96122.47;;;14.50;100.00
61035;BME280;46916;40.564;-7.958;2024-01-16T16:49:32;96109.28;;;14.50;100.00
61035;BME280;46916;40.564;-7.958;2024-01-16T16:51:33;96096.56;;;14.54;100.00
61035;BME280;46916;40.564;-7.958;2024-01-16T16:53:39;96099.81;;;14.56;100.00
61035;BME280;46916;40.564;-7.958;2024-01-16T16:55:41;96089.09;;;14.57;100.00
61035;BME280;46916;40.564;-7.958;2024-01-16T16:57:42;96098.81;;;14.57;100.00
61035;BME280;46916;40.564;-7.958;2024-01-16T16:59:43;96086.47;;;14.57;100.00
61035;BME280;46916;40.564;-7.958;2024-01-16T17:01:43;96089.72;;;14.59;100.00
61035;BME280;46916;40.564;-7.958;2024-01-16T17:03:45;96094.63;;;14.63;100.00
61035;BME280;46916;40.564;-7.958;2024-01-16T17:05:47;96086.06;;;14.60;100.00
61035;BME280;46916;40.564;-7.958;2024-01-16T17:07:48;96074.16;;;14.65;100.00
61035;BME280;46916;40.564;-7.958;2024-01-16T17:09:49;96072.91;;;14.60;100.00
61035;BME280;46916;40.564;-7.958;2024-01-16T17:11:50;96075.94;;;14.57;100.00
61035;BME280;46916;40.564;-7.958;2024-01-16T17:13:51;96074.09;;;14.58;100.00
61035;BME280;46916;40.564;-7.958;2024-01-16T17:15:52;96070.47;;;14.59;100.00
61035;BME280;46916;40.564;-7.958;2024-01-16T17:17:53;96080.63;;;14.62;100.00
61035;BME280;46916;40.564;-7.958;2024-01-16T17:19:54;96078.00;;;14.62;100.00
61035;BME280;46916;40.564;-7.958;2024-01-16T17:21:54;96079.50;;;14.71;100.00
61035;BME280;46916;40.564;-7.958;2024-01-16T17:23:55;96080.56;;;14.77;100.00
61035;BME280;46916;40.564;-7.958;2024-01-16T17:25:56;96083.03;;;14.78;100.00
61035;BME280;46916;40.564;-7.958;2024-01-16T17:27:59;96079.16;;;14.81;100.00
61035;BME280;46916;40.564;-7.958;2024-01-16T17:30:00;96070.66;;;14.79;100.00
61035;BME280;46916;40.564;-7.958;2024-01-16T17:32:01;96064.56;;;14.78;100.00
61035;BME280;46916;40.564;-7.958;2024-01-16T17:34:03;96067.66;;;14.82;100.00
61035;BME280;46916;40.564;-7.958;2024-01-16T17:36:04;96075.78;;;14.87;100.00
61035;BME280;46916;40.564;-7.958;2024-01-16T17:38:10;96080.06;;;14.88;100.00
61035;BME280;46916;40.564;-7.958;2024-01-16T17:40:13;96066.31;;;14.93;100.00
61035;BME280;46916;40.564;-7.958;2024-01-16T17:42:14;96053.38;;;14.98;100.00
61035;BME280;46916;40.564;-7.958;2024-01-16T17:44:15;96039.81;;;15.01;100.00
61035;BME280;46916;40.564;-7.958;2024-01-16T17:46:15;96036.34;;;15.00;100.00
61035;BME280;46916;40.564;-7.958;2024-01-16T17:48:16;96045.72;;;15.03;100.00
61035;BME280;46916;40.564;-7.958;2024-01-16T17:50:17;96036.41;;;15.07;100.00
61035;BME280;46916;40.564;-7.958;2024-01-16T17:52:20;96021.41;;;15.07;100.00
61035;BME280;46916;40.564;-7.958;2024-01-16T17:54:20;96046.75;;;15.08;100.00
61035;BME280;46916;40.564;-7.958;2024-01-16T17:56:21;96039.09;;;15.14;100.00
61035;BME280;46916;40.564;-7.958;2024-01-16T17:58:22;96040.16;;;15.19;100.00